createdAt,value
2022-12-16T00:47:58.741Z,51.98
2022-12-16T00:50:26.296Z,52.07
2022-12-16T00:52:53.959Z,52.01
2022-12-16T00:55:22.526Z,52.02
2022-12-16T00:57:50.239Z,51.97
2022-12-16T01:47:17.160Z,52.51
2022-12-16T01:49:45.325Z,52.69
2022-12-16T01:52:16.612Z,52.76
2022-12-16T01:54:44.443Z,52.85
2022-12-16T01:57:12.945Z,52.75
2022-12-16T01:59:40.831Z,52.97
2022-12-16T02:46:10.009Z,53.44
2022-12-16T02:48:37.674Z,53.45
2022-12-16T02:51:05.305Z,53.35
2022-12-16T02:53:34.316Z,53.43
2022-12-16T02:56:03.932Z,53.59
2022-12-16T02:58:32.946Z,53.46
2022-12-16T03:47:59.687Z,53.85
2022-12-16T03:50:27.849Z,53.85
2022-12-16T03:52:55.465Z,53.81
2022-12-16T03:55:23.104Z,53.79
2022-12-16T03:57:50.910Z,53.81
2022-12-16T04:46:01.161Z,54.24
2022-12-16T04:48:46.419Z,54.06
2022-12-16T04:51:31.614Z,53.94
2022-12-16T04:54:17.132Z,54.00
2022-12-16T04:57:02.237Z,54.22
2022-12-16T04:59:47.223Z,53.94
2022-12-16T05:31:53.727Z,53.82
2022-12-16T05:34:39.103Z,53.79
2022-12-16T05:37:24.191Z,53.71
2022-12-16T05:40:09.109Z,53.71
2022-12-16T05:42:54.092Z,53.62
2022-12-16T05:45:39.217Z,53.57
2022-12-16T05:48:26.064Z,53.96
2022-12-16T05:51:11.411Z,54.09
2022-12-16T05:53:56.273Z,54.17
2022-12-16T05:56:41.554Z,54.35
2022-12-16T05:59:27.068Z,54.28
2022-12-16T06:02:12.511Z,54.20
2022-12-16T06:04:59.247Z,54.21
2022-12-16T06:07:44.748Z,54.11
2022-12-16T06:10:35.274Z,54.55
2022-12-16T06:13:32.066Z,54.33
2022-12-16T06:16:17.264Z,54.16
2022-12-16T06:19:02.360Z,54.15
2022-12-16T06:21:49.344Z,54.15
2022-12-16T06:24:34.440Z,54.21
2022-12-16T06:27:19.591Z,54.20
2022-12-16T06:30:04.815Z,54.26
2022-12-16T06:32:50.137Z,54.11
2022-12-16T06:35:35.684Z,54.19
2022-12-16T06:38:22.484Z,54.15
2022-12-16T06:41:07.027Z,54.13
2022-12-16T06:43:52.191Z,54.17
2022-12-16T06:46:37.408Z,54.04
2022-12-16T06:49:22.535Z,54.28
2022-12-16T06:52:07.878Z,54.12
2022-12-16T06:54:55.055Z,54.16
2022-12-16T06:57:40.265Z,54.01
2022-12-16T07:00:26.372Z,54.03
2022-12-16T07:03:11.663Z,53.94
2022-12-16T07:05:56.878Z,54.00
2022-12-16T07:08:42.498Z,54.01
2022-12-16T07:11:25.532Z,54.12
2022-12-16T07:14:10.706Z,54.15
2022-12-16T07:16:55.854Z,54.19
2022-12-16T07:19:41.240Z,54.10
2022-12-16T07:22:26.450Z,54.31
2022-12-16T07:25:11.604Z,54.27
2022-12-16T07:27:58.432Z,54.28
2022-12-16T07:30:49.173Z,54.18
2022-12-16T07:33:34.641Z,54.17
2022-12-16T07:36:20.299Z,54.54
2022-12-16T07:39:05.459Z,54.81
2022-12-16T07:41:50.693Z,54.62
2022-12-16T07:44:40.072Z,54.45
2022-12-16T07:47:25.411Z,54.24
2022-12-16T07:50:10.717Z,54.06
2022-12-16T07:52:56.066Z,53.89
2022-12-16T07:55:41.332Z,53.83
2022-12-16T07:58:27.152Z,53.89
2022-12-16T08:46:58.235Z,48.29
2022-12-16T08:49:43.589Z,48.50
2022-12-16T08:52:28.700Z,48.93
2022-12-16T08:55:13.883Z,48.81
2022-12-16T08:57:58.773Z,47.83
2022-12-16T09:30:02.054Z,48.74
2022-12-16T09:32:46.949Z,48.63
2022-12-16T09:35:31.825Z,48.60
2022-12-16T09:38:16.738Z,48.53
2022-12-16T09:41:01.842Z,48.56
2022-12-16T09:43:51.280Z,48.53
2022-12-16T09:46:39.542Z,48.62
2022-12-16T09:49:25.248Z,48.70
2022-12-16T09:52:12.488Z,48.61
2022-12-16T09:55:01.331Z,48.63
2022-12-16T09:57:49.883Z,48.50
2022-12-16T10:00:38.142Z,48.54
2022-12-16T10:03:30.265Z,48.52
2022-12-16T10:06:16.080Z,48.47
2022-12-16T10:09:03.455Z,48.59
2022-12-16T10:11:51.626Z,48.53
2022-12-16T10:14:37.750Z,48.49
2022-12-16T10:17:23.096Z,48.62
2022-12-16T10:20:10.683Z,48.65
2022-12-16T10:22:55.993Z,48.57
2022-12-16T10:25:41.508Z,48.73
2022-12-16T10:28:30.830Z,48.73
2022-12-16T10:31:15.735Z,48.73
2022-12-16T10:34:01.006Z,48.79
2022-12-16T10:36:47.297Z,48.64
2022-12-16T10:39:47.106Z,48.59
2022-12-16T10:42:34.992Z,48.72
2022-12-16T10:45:16.571Z,48.62
2022-12-16T10:48:01.630Z,48.52
2022-12-16T10:50:46.608Z,48.72
2022-12-16T10:53:33.872Z,48.70
2022-12-16T10:56:22.290Z,48.66
2022-12-16T10:59:09.763Z,48.75
2022-12-16T11:01:55.388Z,48.76
2022-12-16T11:04:47.712Z,48.59
2022-12-16T11:07:43.150Z,48.51
2022-12-16T11:10:45.440Z,48.51
2022-12-16T11:13:31.237Z,48.33
2022-12-16T11:16:24.056Z,48.61
2022-12-16T11:19:09.179Z,48.46
2022-12-16T11:21:54.073Z,48.17
2022-12-16T11:24:39.118Z,48.09
2022-12-16T11:27:30.819Z,47.44
2022-12-16T11:30:16.045Z,47.88
2022-12-16T11:33:07.842Z,47.68
2022-12-16T11:35:55.650Z,47.85
2022-12-16T11:38:42.671Z,48.00
2022-12-16T11:41:27.958Z,47.88
2022-12-16T11:44:14.573Z,48.31
2022-12-16T11:46:59.431Z,48.43
2022-12-16T11:49:46.142Z,48.29
2022-12-16T11:52:40.560Z,48.17
2022-12-16T11:56:03.621Z,48.12
2022-12-16T11:58:37.821Z,48.12
2022-12-16T12:01:28.105Z,48.35
2022-12-16T12:04:13.405Z,47.97
2022-12-16T12:07:02.120Z,48.15
2022-12-16T12:09:47.601Z,47.82
2022-12-16T12:12:34.802Z,47.63
2022-12-16T12:15:20.069Z,48.05
2022-12-16T12:18:08.024Z,47.98
2022-12-16T12:20:59.185Z,47.62
2022-12-16T12:23:46.810Z,47.71
2022-12-16T12:26:32.046Z,48.07
2022-12-16T12:29:18.124Z,47.88
2022-12-16T12:32:05.180Z,47.63
2022-12-16T12:34:53.461Z,34.51
2022-12-16T12:37:40.307Z,38.77
2022-12-16T12:40:29.198Z,44.96
2022-12-16T12:43:14.080Z,46.12
2022-12-16T12:46:10.806Z,46.84
2022-12-16T12:48:58.774Z,45.93
2022-12-16T12:51:52.580Z,46.02
2022-12-16T12:54:39.950Z,46.66
2022-12-16T12:57:25.003Z,46.68
2022-12-16T13:00:11.580Z,46.73
2022-12-16T13:03:00.411Z,46.70
2022-12-16T13:05:45.796Z,46.93
2022-12-16T13:08:48.475Z,46.96
2022-12-16T13:11:35.585Z,47.01
2022-12-16T13:14:20.669Z,46.94
2022-12-16T13:17:25.420Z,46.98
2022-12-16T13:20:17.159Z,46.85
2022-12-16T13:23:02.541Z,46.66
2022-12-16T13:25:55.590Z,46.61
2022-12-16T13:28:43.317Z,46.44
2022-12-16T13:31:28.301Z,46.51
2022-12-16T13:34:10.012Z,46.37
2022-12-16T13:36:54.924Z,46.46
2022-12-16T13:39:40.883Z,46.59
2022-12-16T13:42:45.645Z,46.52
2022-12-16T13:45:51.619Z,46.43
2022-12-16T13:48:57.566Z,46.52
2022-12-16T13:51:57.878Z,46.57
2022-12-16T13:54:44.907Z,46.58
2022-12-16T13:57:29.849Z,46.84
2022-12-16T14:00:14.741Z,46.82
2022-12-16T14:03:00.262Z,46.84
2022-12-16T14:06:02.127Z,47.11
2022-12-16T14:08:48.544Z,47.49
2022-12-16T14:11:34.232Z,47.55
2022-12-16T14:14:19.569Z,47.58
2022-12-16T14:17:06.173Z,47.72
2022-12-16T14:19:52.641Z,47.76
2022-12-16T14:22:47.861Z,48.18
2022-12-16T14:25:33.403Z,48.45
2022-12-16T14:28:18.788Z,48.55
2022-12-16T14:31:09.486Z,48.39
2022-12-16T14:33:55.026Z,48.42
2022-12-16T14:36:40.667Z,48.35
2022-12-16T14:39:31.241Z,48.37
2022-12-16T14:42:16.597Z,48.20
2022-12-16T14:45:03.315Z,48.13
2022-12-16T14:48:03.141Z,48.12
2022-12-16T14:50:48.748Z,48.09
2022-12-16T14:53:35.256Z,48.15
2022-12-16T14:56:37.545Z,48.05
2022-12-16T14:59:26.806Z,48.13
2022-12-16T15:02:14.761Z,48.18
2022-12-16T15:05:00.082Z,48.79
2022-12-16T15:07:45.234Z,49.02
2022-12-16T15:10:31.230Z,48.88
2022-12-16T15:13:18.076Z,49.18
2022-12-16T15:16:03.483Z,49.25
2022-12-16T15:18:49.302Z,49.38
2022-12-16T15:21:34.318Z,49.31
2022-12-16T15:24:18.901Z,49.60
2022-12-16T15:27:03.939Z,49.48
2022-12-16T15:29:51.932Z,49.65
2022-12-16T15:32:50.797Z,49.96
2022-12-16T15:35:42.811Z,50.31
2022-12-16T15:38:29.631Z,50.60
2022-12-16T15:41:22.823Z,50.87
2022-12-16T15:44:07.743Z,50.95
2022-12-16T15:46:54.365Z,50.95
2022-12-16T15:49:39.991Z,51.07
2022-12-16T15:52:42.695Z,51.07
2022-12-16T15:55:41.004Z,50.80
2022-12-16T15:58:30.368Z,50.68
2022-12-16T16:01:15.808Z,50.56
2022-12-16T16:04:02.406Z,50.64
2022-12-16T16:06:47.755Z,50.50
2022-12-16T16:09:33.027Z,50.51
2022-12-16T16:12:17.922Z,50.43
2022-12-16T16:15:03.149Z,50.48
2022-12-16T16:17:48.232Z,50.55
2022-12-16T16:20:35.380Z,50.28
2022-12-16T16:23:20.516Z,50.24
2022-12-16T16:26:05.620Z,50.23
2022-12-16T16:28:50.938Z,50.07
2022-12-16T16:31:36.108Z,50.26
2022-12-16T16:34:21.400Z,50.26
2022-12-16T16:37:07.907Z,50.22
2022-12-16T16:39:52.792Z,50.19
2022-12-16T16:42:40.778Z,50.00
2022-12-16T16:45:26.173Z,50.21
2022-12-16T16:48:26.177Z,50.28
2022-12-16T16:51:12.783Z,50.21
2022-12-16T16:53:59.270Z,50.23
2022-12-16T16:56:45.531Z,50.13
2022-12-16T16:59:31.674Z,50.12
2022-12-16T17:02:17.112Z,50.02
2022-12-16T17:05:02.939Z,50.05
2022-12-16T17:07:53.675Z,50.09
2022-12-16T17:10:40.130Z,49.68
2022-12-16T17:13:26.316Z,49.98
2022-12-16T17:16:11.402Z,50.06
2022-12-16T17:18:56.691Z,49.99
2022-12-16T17:21:42.122Z,50.09
2022-12-16T17:24:27.274Z,50.25
2022-12-16T17:27:13.765Z,50.30
2022-12-16T17:29:59.087Z,50.08
2022-12-16T17:32:55.507Z,50.17
2022-12-16T17:35:40.582Z,50.26
2022-12-16T17:38:26.527Z,50.68
2022-12-16T17:41:11.904Z,50.56
2022-12-16T17:43:58.380Z,50.75
2022-12-16T17:46:43.679Z,50.70
2022-12-16T17:49:28.888Z,51.13
2022-12-16T17:52:13.987Z,51.22
2022-12-16T17:54:59.121Z,51.48
2022-12-16T17:57:44.324Z,51.51
2022-12-16T18:00:31.315Z,51.46
2022-12-16T18:03:16.445Z,51.42
2022-12-16T18:06:14.648Z,51.21
2022-12-16T18:08:59.771Z,51.19
2022-12-16T18:11:45.271Z,51.35
2022-12-16T18:14:30.239Z,51.24
2022-12-16T18:17:16.718Z,51.37
2022-12-16T18:20:02.008Z,51.16
2022-12-16T18:22:46.817Z,50.92
2022-12-16T18:25:32.001Z,50.58
2022-12-16T18:28:17.124Z,50.51
2022-12-16T18:31:02.332Z,50.86
2022-12-16T18:33:49.034Z,50.78
2022-12-16T18:36:34.097Z,50.46
2022-12-16T18:39:19.414Z,50.59
2022-12-16T18:42:04.805Z,50.90
2022-12-16T18:44:49.631Z,50.64
2022-12-16T18:47:34.931Z,50.54
2022-12-16T18:50:27.835Z,50.64
2022-12-16T18:53:14.409Z,50.63
2022-12-16T18:55:59.784Z,50.51
2022-12-16T18:58:52.308Z,50.41
2022-12-16T19:01:33.895Z,50.37
2022-12-16T19:04:18.987Z,50.32
2022-12-16T19:07:05.246Z,50.43
2022-12-16T19:09:50.664Z,50.15
2022-12-16T19:12:35.704Z,50.17
2022-12-16T19:15:21.134Z,50.15
2022-12-16T19:18:06.794Z,50.04
2022-12-16T19:20:51.916Z,50.14
2022-12-16T19:23:38.781Z,50.12
2022-12-16T19:26:24.085Z,49.94
2022-12-16T19:29:09.169Z,49.94
2022-12-16T19:31:54.738Z,49.92
2022-12-16T19:34:40.946Z,49.85
2022-12-16T19:37:26.337Z,49.75
2022-12-16T19:40:12.818Z,49.74
2022-12-16T19:42:58.128Z,49.69
2022-12-16T19:45:43.386Z,49.83
2022-12-16T19:48:28.425Z,49.58
2022-12-16T19:51:15.352Z,50.03
2022-12-16T19:54:00.470Z,49.76
2022-12-16T19:56:47.380Z,49.87
2022-12-16T19:59:32.979Z,49.87
2022-12-16T20:02:18.644Z,49.86
2022-12-16T20:05:03.885Z,50.06
2022-12-16T20:07:49.093Z,50.16
2022-12-16T20:10:34.316Z,50.27
2022-12-16T20:13:27.185Z,50.42
2022-12-16T20:16:19.171Z,50.57
2022-12-16T20:19:04.282Z,50.63
2022-12-16T20:22:06.888Z,50.76
2022-12-16T20:24:52.636Z,50.75
2022-12-16T20:27:41.356Z,50.78
2022-12-16T20:30:28.659Z,50.94
2022-12-16T20:33:13.872Z,50.67
2022-12-16T20:35:59.335Z,50.38
2022-12-16T20:38:44.418Z,50.33
2022-12-16T20:41:29.738Z,50.21
2022-12-16T20:44:14.674Z,50.30
2022-12-16T20:47:01.171Z,50.13
2022-12-16T20:49:46.368Z,50.15
2022-12-16T20:52:31.422Z,50.30
2022-12-16T20:55:16.350Z,50.20
2022-12-16T20:58:02.052Z,50.01
2022-12-16T21:00:47.389Z,49.99
2022-12-16T21:03:34.335Z,50.01
2022-12-16T21:06:19.556Z,49.95
2022-12-16T21:09:04.933Z,50.23
2022-12-16T21:11:50.770Z,50.17
2022-12-16T21:14:36.902Z,50.14
2022-12-16T21:17:22.068Z,49.95
2022-12-16T21:20:08.500Z,50.12
2022-12-16T21:22:54.439Z,50.00
2022-12-16T21:25:41.154Z,49.92
2022-12-16T21:28:26.320Z,49.94
2022-12-16T21:31:11.442Z,49.79
2022-12-16T21:33:56.563Z,49.99
2022-12-16T21:36:43.897Z,49.85
2022-12-16T21:39:29.167Z,49.96
2022-12-16T21:42:14.242Z,50.06
2022-12-16T21:44:59.292Z,50.11
2022-12-16T21:47:44.474Z,50.08
2022-12-16T21:50:29.750Z,50.13
2022-12-16T21:53:16.127Z,50.24
2022-12-16T21:56:01.505Z,50.34
2022-12-16T21:58:45.944Z,50.31
2022-12-16T22:01:30.907Z,50.21
2022-12-16T22:04:16.248Z,50.25
2022-12-16T22:07:01.335Z,50.19
2022-12-16T22:09:47.805Z,50.20
2022-12-16T22:12:33.043Z,50.10
2022-12-16T22:15:18.178Z,50.03
2022-12-16T22:18:03.390Z,49.93
2022-12-16T22:20:48.169Z,49.70
2022-12-16T22:23:41.855Z,49.75
2022-12-16T22:26:28.891Z,49.60
2022-12-16T22:29:14.113Z,49.64
2022-12-16T22:31:59.210Z,49.61
2022-12-16T22:34:55.872Z,49.74
2022-12-16T22:37:40.728Z,49.65
2022-12-16T22:40:26.743Z,49.55
2022-12-16T22:43:13.657Z,49.60
2022-12-16T22:45:59.186Z,49.55
2022-12-16T22:48:44.530Z,49.46
2022-12-16T22:51:29.703Z,49.60
2022-12-16T22:54:14.760Z,49.67
2022-12-16T22:56:59.869Z,49.57
2022-12-16T22:59:46.001Z,49.56
2022-12-16T23:02:31.330Z,49.56
2022-12-16T23:05:16.285Z,49.91
2022-12-16T23:08:01.214Z,49.87
2022-12-16T23:10:46.393Z,49.86
2022-12-16T23:13:31.841Z,49.79
2022-12-16T23:16:18.086Z,49.66
2022-12-16T23:19:03.324Z,49.67
2022-12-16T23:21:48.592Z,49.76
2022-12-16T23:24:33.639Z,49.80
2022-12-16T23:27:18.854Z,49.66
2022-12-16T23:50:44.394Z,49.53
2022-12-16T23:53:29.534Z,49.54
2022-12-16T23:56:16.915Z,49.34
2022-12-16T23:59:01.805Z,49.44
